Terminal Aerodrome Forecast
Issued by NWS Atlanta, GA

Home | Current Version | Previous Version | Text Only | Print | Product List | Glossary On
Versions: 1 2 3 4 5 6 7 8 9 10 11 12 13 14 15 16 17 18 19 20 21 22 23 24 25 26 27 28 29 30 31 32 33 34 35 36 37 38 39
000
FTUS42 KFFC 171100
TAFATL
TAF
KATL 171126Z 1712/1818 08012KT P6SM SCT040 SCT200
     FM171500 10012G20KT P6SM SCT040 BKN200
     FM180200 10010KT P6SM BKN035
     FM181000 07010KT P6SM BKN025
     FM181500 07012G18KT P6SM -SHRA OVC020=

USA.gov is the U.S. government's official web portal to all federal, state and local government web resources and services.